createdAt,value
2017-09-06T00:00:26.088Z,0
2017-09-06T00:01:27.903Z,0
2017-09-06T00:02:29.505Z,0
2017-09-06T00:03:31.247Z,0
2017-09-06T00:04:32.871Z,0
2017-09-06T00:05:34.641Z,0
2017-09-06T00:06:36.249Z,0
2017-09-06T00:07:38.919Z,0
2017-09-06T00:08:40.625Z,0
2017-09-06T00:09:42.323Z,0
2017-09-06T00:10:44.017Z,0
2017-09-06T00:11:45.740Z,0
2017-09-06T00:12:47.375Z,0
2017-09-06T00:13:49.127Z,0
2017-09-06T00:14:50.842Z,0
2017-09-06T00:15:52.546Z,0
2017-09-06T00:16:54.204Z,0
2017-09-06T00:17:55.987Z,0
2017-09-06T00:18:57.623Z,0
2017-09-06T00:20:00.257Z,0
2017-09-06T00:21:01.940Z,0
2017-09-06T00:22:03.595Z,0
2017-09-06T00:23:05.228Z,0
2017-09-06T00:24:06.838Z,0
2017-09-06T00:25:08.533Z,0
2017-09-06T00:26:10.244Z,0
2017-09-06T00:27:11.876Z,0
2017-09-06T00:28:13.692Z,0
2017-09-06T00:29:15.355Z,0
2017-09-06T00:30:17.083Z,0
2017-09-06T00:31:18.764Z,0
2017-09-06T00:32:21.410Z,0
2017-09-06T00:33:22.998Z,0
2017-09-06T00:34:24.713Z,0
2017-09-06T00:35:26.410Z,0
2017-09-06T00:36:28.199Z,0
2017-09-06T00:37:29.805Z,0
2017-09-06T00:38:31.542Z,0
2017-09-06T00:39:33.210Z,0
2017-09-06T00:40:34.939Z,0
2017-09-06T00:41:36.605Z,0
2017-09-06T00:42:38.345Z,0
2017-09-06T00:43:39.946Z,0
2017-09-06T00:44:41.643Z,0
2017-09-06T00:45:43.325Z,0
2017-09-06T00:46:45.064Z,0
2017-09-06T00:47:46.806Z,0
2017-09-06T00:48:48.547Z,0
2017-09-06T00:49:50.194Z,0
2017-09-06T00:50:51.913Z,0
2017-09-06T00:51:53.455Z,0
2017-09-06T00:52:55.205Z,0
2017-09-06T00:53:56.892Z,0
2017-09-06T00:54:58.552Z,0
2017-09-06T00:56:00.188Z,0
2017-09-06T00:57:01.844Z,0
2017-09-06T00:58:03.493Z,0
2017-09-06T00:59:05.119Z,0
2017-09-06T01:00:06.774Z,0
2017-09-06T01:01:08.619Z,0
2017-09-06T01:02:10.240Z,0
2017-09-06T01:03:11.985Z,0
2017-09-06T01:04:13.660Z,0
2017-09-06T01:05:15.400Z,0
2017-09-06T01:06:17.014Z,0
2017-09-06T01:07:18.735Z,0
2017-09-06T01:08:20.407Z,0
2017-09-06T01:09:22.193Z,0
2017-09-06T01:10:23.861Z,0
2017-09-06T01:11:25.544Z,0
2017-09-06T01:12:27.292Z,0
2017-09-06T01:13:29.029Z,0
2017-09-06T01:14:30.766Z,0
2017-09-06T01:15:32.561Z,0
2017-09-06T01:16:34.185Z,0
2017-09-06T01:17:35.884Z,0
2017-09-06T01:18:37.492Z,0
2017-09-06T01:19:39.142Z,0
2017-09-06T01:20:40.863Z,0
2017-09-06T01:21:42.573Z,0
2017-09-06T01:22:44.258Z,0
2017-09-06T01:23:45.997Z,0
2017-09-06T01:24:47.659Z,0
2017-09-06T01:25:49.412Z,0
2017-09-06T01:26:51.064Z,0
2017-09-06T01:27:52.814Z,0
2017-09-06T01:28:54.450Z,0
2017-09-06T01:29:56.197Z,0
2017-09-06T01:30:57.890Z,0
2017-09-06T01:31:59.542Z,0
2017-09-06T01:33:01.207Z,0
2017-09-06T01:34:02.888Z,0
2017-09-06T01:35:04.574Z,0
2017-09-06T01:36:06.339Z,0
2017-09-06T01:37:07.991Z,0
2017-09-06T01:38:09.770Z,0
2017-09-06T01:39:11.402Z,0
2017-09-06T01:40:13.094Z,0
2017-09-06T01:41:14.728Z,0
2017-09-06T01:42:16.367Z,0
2017-09-06T01:43:18.044Z,0
2017-09-06T01:44:19.770Z,0
2017-09-06T01:45:21.368Z,0
2017-09-06T01:46:24.064Z,0
2017-09-06T01:47:25.737Z,0
2017-09-06T01:48:27.478Z,0
2017-09-06T01:49:29.150Z,0
2017-09-06T01:50:30.922Z,0
2017-09-06T01:51:32.462Z,0
2017-09-06T01:52:34.202Z,0
2017-09-06T01:53:35.852Z,0
2017-09-06T01:54:37.503Z,0
2017-09-06T01:55:39.159Z,0
2017-09-06T01:56:40.837Z,0
2017-09-06T01:57:42.535Z,0
2017-09-06T01:58:44.242Z,0
2017-09-06T01:59:45.832Z,0
2017-09-06T02:00:47.578Z,0
2017-09-06T02:01:49.187Z,0
2017-09-06T02:02:50.895Z,0
2017-09-06T02:03:52.551Z,0
2017-09-06T02:04:54.301Z,0
2017-09-06T02:05:55.902Z,0
2017-09-06T02:06:57.616Z,0
2017-09-06T02:07:59.315Z,0
2017-09-06T02:09:00.987Z,0
2017-09-06T02:10:02.636Z,0
2017-09-06T02:11:04.464Z,0
2017-09-06T02:12:06.200Z,0
2017-09-06T02:13:07.892Z,0
2017-09-06T02:14:09.532Z,0
2017-09-06T02:15:11.236Z,0
2017-09-06T02:16:12.981Z,0
2017-09-06T02:17:14.773Z,0
2017-09-06T02:18:16.549Z,0
2017-09-06T02:19:18.337Z,0
2017-09-06T02:20:20.045Z,0
2017-09-06T02:21:21.794Z,0
2017-09-06T02:22:23.447Z,0
2017-09-06T02:23:25.165Z,0
2017-09-06T02:24:26.861Z,0
2017-09-06T02:25:28.556Z,0
2017-09-06T02:26:30.227Z,0
2017-09-06T02:27:31.996Z,0
2017-09-06T02:28:33.717Z,0
2017-09-06T02:29:35.458Z,0
2017-09-06T02:30:37.155Z,0
2017-09-06T02:31:38.841Z,0
2017-09-06T02:32:40.516Z,0
2017-09-06T02:33:42.190Z,0
2017-09-06T02:34:43.856Z,0
2017-09-06T02:35:45.572Z,0
2017-09-06T02:36:47.190Z,0
2017-09-06T02:37:48.891Z,0
2017-09-06T02:38:50.533Z,0
2017-09-06T02:39:52.348Z,0
2017-09-06T02:40:53.952Z,0
2017-09-06T02:41:55.705Z,0
2017-09-06T02:42:57.445Z,0
2017-09-06T02:43:59.151Z,0
2017-09-06T02:45:00.759Z,0
2017-09-06T02:46:02.408Z,0
2017-09-06T02:47:04.054Z,0
2017-09-06T02:48:05.733Z,0
2017-09-06T02:49:07.346Z,0
2017-09-06T02:50:09.028Z,0
2017-09-06T02:51:10.668Z,0
2017-09-06T02:52:12.291Z,0
2017-09-06T02:53:13.993Z,0
2017-09-06T02:54:15.750Z,0
2017-09-06T02:55:17.391Z,0
2017-09-06T02:56:19.112Z,0
2017-09-06T02:57:20.699Z,0
2017-09-06T02:58:22.315Z,0
2017-09-06T02:59:24.003Z,0
2017-09-06T03:00:25.755Z,0
2017-09-06T03:01:27.465Z,0
2017-09-06T03:02:29.227Z,0
2017-09-06T03:03:30.951Z,0
2017-09-06T03:04:32.696Z,0
2017-09-06T03:05:34.338Z,0
2017-09-06T03:06:36.065Z,0
2017-09-06T03:07:37.716Z,0
2017-09-06T03:08:39.493Z,0
2017-09-06T03:09:41.113Z,0
2017-09-06T03:10:42.850Z,0
2017-09-06T03:11:44.520Z,0
2017-09-06T03:12:48.151Z,0
2017-09-06T03:13:49.791Z,0
2017-09-06T03:14:51.537Z,0
2017-09-06T03:15:53.185Z,0
2017-09-06T03:16:54.901Z,0
2017-09-06T03:17:56.588Z,0
2017-09-06T03:18:58.232Z,0
2017-09-06T03:19:59.882Z,0
2017-09-06T03:21:01.488Z,0
2017-09-06T03:22:03.238Z,0
2017-09-06T03:23:04.952Z,0
2017-09-06T03:24:06.640Z,0
2017-09-06T03:25:08.371Z,0
2017-09-06T03:26:10.088Z,0
2017-09-06T03:27:12.808Z,0
2017-09-06T03:28:14.455Z,0
2017-09-06T03:29:16.196Z,0
2017-09-06T03:30:17.851Z,0
2017-09-06T03:31:19.544Z,0
2017-09-06T03:32:21.160Z,0
2017-09-06T03:33:22.839Z,0
2017-09-06T03:34:24.512Z,0
2017-09-06T03:35:26.253Z,0
2017-09-06T03:36:27.917Z,0
2017-09-06T03:37:29.643Z,0
2017-09-06T03:38:31.319Z,0
2017-09-06T03:39:33.002Z,0
2017-09-06T03:40:34.622Z,0
2017-09-06T03:41:36.372Z,0
2017-09-06T03:42:38.066Z,0
2017-09-06T03:43:39.858Z,0
2017-09-06T03:44:41.596Z,0
2017-09-06T03:45:43.291Z,0
2017-09-06T03:46:44.938Z,0
2017-09-06T03:47:46.682Z,0
2017-09-06T03:48:48.460Z,0
2017-09-06T03:49:51.173Z,0
2017-09-06T03:50:52.780Z,0
2017-09-06T03:51:54.630Z,0
2017-09-06T03:52:56.291Z,0
2017-09-06T03:53:58.236Z,0
2017-09-06T03:55:00.241Z,0
2017-09-06T03:56:02.359Z,0
2017-09-06T03:57:04.317Z,0
2017-09-06T03:58:06.291Z,0
2017-09-06T03:59:08.217Z,0
2017-09-06T04:00:10.291Z,0
2017-09-06T04:01:12.215Z,0
2017-09-06T04:02:14.180Z,0
2017-09-06T04:03:16.126Z,0
2017-09-06T04:04:18.057Z,0
2017-09-06T04:05:20.028Z,0
2017-09-06T04:06:22.002Z,0
2017-09-06T04:07:23.888Z,0
2017-09-06T04:08:25.930Z,0
2017-09-06T04:09:27.960Z,0
2017-09-06T04:10:29.998Z,0
2017-09-06T04:11:31.920Z,0
2017-09-06T04:12:33.945Z,0
2017-09-06T04:13:35.851Z,0
2017-09-06T04:14:37.859Z,0
2017-09-06T04:15:39.835Z,0
2017-09-06T04:16:41.796Z,0
2017-09-06T04:17:43.666Z,0
2017-09-06T04:18:45.654Z,4
2017-09-06T04:19:47.579Z,4
2017-09-06T04:20:50.542Z,4
2017-09-06T04:21:52.556Z,4
2017-09-06T04:22:54.509Z,8
2017-09-06T04:23:56.435Z,8
2017-09-06T04:24:58.366Z,12
2017-09-06T04:26:00.326Z,12
2017-09-06T04:27:03.383Z,12
2017-09-06T04:28:05.344Z,16
2017-09-06T04:29:07.265Z,20
2017-09-06T04:30:09.240Z,20
2017-09-06T04:31:11.245Z,24
2017-09-06T04:32:13.222Z,32
2017-09-06T04:33:15.091Z,36
2017-09-06T04:34:17.037Z,44
2017-09-06T04:35:18.963Z,56
2017-09-06T04:36:21.041Z,68
2017-09-06T04:37:23.090Z,84
2017-09-06T04:38:24.991Z,96
2017-09-06T04:39:26.993Z,112
2017-09-06T04:40:28.880Z,132
2017-09-06T04:41:30.812Z,156
2017-09-06T04:42:32.802Z,180
2017-09-06T04:43:34.840Z,204
2017-09-06T04:44:36.873Z,236
2017-09-06T04:45:38.761Z,268
2017-09-06T04:46:40.740Z,300
2017-09-06T04:47:42.845Z,332
2017-09-06T04:48:44.831Z,372
2017-09-06T04:49:46.908Z,416
2017-09-06T04:50:48.821Z,464
2017-09-06T04:51:50.845Z,508
2017-09-06T04:52:52.754Z,564
2017-09-06T04:53:54.767Z,620
2017-09-06T04:54:56.810Z,676
2017-09-06T04:55:58.859Z,744
2017-09-06T04:57:00.831Z,828
2017-09-06T04:58:02.723Z,908
2017-09-06T04:59:04.688Z,980
2017-09-06T05:00:06.605Z,1056
2017-09-06T05:01:08.526Z,1120
2017-09-06T05:02:10.453Z,1160
2017-09-06T05:03:12.325Z,1196
2017-09-06T05:04:14.260Z,1212
2017-09-06T05:05:16.166Z,1196
2017-09-06T05:06:18.134Z,1184
2017-09-06T05:07:20.133Z,1156
2017-09-06T05:08:21.999Z,1104
2017-09-06T05:09:23.957Z,1016
2017-09-06T05:10:25.946Z,972
2017-09-06T05:11:27.920Z,980
2017-09-06T05:12:30.932Z,1072
2017-09-06T05:13:32.971Z,1208
2017-09-06T05:14:34.879Z,1368
2017-09-06T05:15:36.869Z,1544
2017-09-06T05:16:38.793Z,1740
2017-09-06T05:17:40.687Z,1956
2017-09-06T05:18:42.711Z,2176
2017-09-06T05:19:44.753Z,2376
2017-09-06T05:20:46.622Z,2472
2017-09-06T05:21:48.626Z,2412
2017-09-06T05:22:50.622Z,2544
2017-09-06T05:23:52.531Z,2824
2017-09-06T05:24:54.609Z,3068
2017-09-06T05:25:56.692Z,3332
2017-09-06T05:26:58.597Z,3472
2017-09-06T05:28:00.625Z,3660
2017-09-06T05:29:02.575Z,3844
2017-09-06T05:30:04.493Z,4184
2017-09-06T05:31:06.436Z,4084
2017-09-06T05:32:08.431Z,3860
2017-09-06T05:33:10.399Z,3704
2017-09-06T05:34:12.582Z,3908
2017-09-06T05:35:14.511Z,4040
2017-09-06T05:36:16.487Z,4168
2017-09-06T05:37:18.503Z,4408
2017-09-06T05:38:20.440Z,4740
2017-09-06T05:39:23.290Z,4892
2017-09-06T05:40:25.283Z,4828
2017-09-06T05:41:27.405Z,4372
2017-09-06T05:42:29.452Z,4428
2017-09-06T05:43:31.452Z,4648
2017-09-06T05:44:33.378Z,5036
2017-09-06T05:45:35.332Z,5872
2017-09-06T05:46:37.299Z,6604
2017-09-06T05:47:39.339Z,6564
2017-09-06T05:48:41.270Z,6380
2017-09-06T05:49:43.524Z,5884
2017-09-06T05:50:45.455Z,5292
2017-09-06T05:51:47.571Z,5140
2017-09-06T05:52:49.675Z,5212
2017-09-06T05:53:51.670Z,5420
2017-09-06T05:54:53.823Z,5760
2017-09-06T05:55:55.803Z,6044
2017-09-06T05:56:57.843Z,6260
2017-09-06T05:57:59.778Z,6484
2017-09-06T05:59:01.725Z,6724
2017-09-06T06:00:03.594Z,6852
2017-09-06T06:01:05.526Z,6908
2017-09-06T06:02:07.456Z,7072
2017-09-06T06:03:09.310Z,7212
2017-09-06T06:04:11.295Z,7288
2017-09-06T06:05:13.148Z,7444
2017-09-06T06:06:15.067Z,7996
2017-09-06T06:07:17.012Z,8232
2017-09-06T06:08:18.931Z,8156
2017-09-06T06:09:20.849Z,8240
2017-09-06T06:10:22.852Z,8796
2017-09-06T06:11:24.742Z,9944
2017-09-06T06:12:26.781Z,11260
2017-09-06T06:13:28.752Z,12108
2017-09-06T06:14:30.605Z,12452
2017-09-06T06:15:32.569Z,12264
2017-09-06T06:16:34.518Z,11632
2017-09-06T06:17:36.488Z,10628
2017-09-06T06:18:38.544Z,9684
2017-09-06T06:19:40.697Z,9012
2017-09-06T06:20:42.732Z,8668
2017-09-06T06:21:44.753Z,8388
2017-09-06T06:22:46.735Z,8168
2017-09-06T06:23:48.681Z,7868
2017-09-06T06:24:50.741Z,7588
2017-09-06T06:25:52.739Z,7340
2017-09-06T06:26:54.740Z,7268
2017-09-06T06:27:56.714Z,7268
2017-09-06T06:28:58.693Z,7212
2017-09-06T06:30:00.696Z,7240
2017-09-06T06:31:02.836Z,7332
2017-09-06T06:32:04.852Z,7472
2017-09-06T06:33:06.890Z,7616
2017-09-06T06:34:08.843Z,7820
2017-09-06T06:35:10.881Z,8068
2017-09-06T06:36:12.902Z,8304
2017-09-06T06:37:14.879Z,8628
2017-09-06T06:38:17.117Z,8408
2017-09-06T06:39:21.220Z,7980
2017-09-06T06:40:23.219Z,8208
2017-09-06T06:41:25.154Z,8056
2017-09-06T06:42:27.217Z,7988
2017-09-06T06:43:29.150Z,8964
2017-09-06T06:44:31.147Z,9020
2017-09-06T06:45:33.035Z,8824
2017-09-06T06:46:34.950Z,8616
2017-09-06T06:47:38.948Z,7928
2017-09-06T06:48:40.875Z,7612
2017-09-06T06:49:42.814Z,8136
2017-09-06T06:50:44.747Z,9324
2017-09-06T06:51:46.760Z,10092
2017-09-06T06:52:48.726Z,10828
2017-09-06T06:53:52.798Z,11080
2017-09-06T06:54:54.922Z,11836
2017-09-06T06:55:56.903Z,11348
2017-09-06T06:56:58.978Z,10104
2017-09-06T06:58:00.967Z,9948
2017-09-06T06:59:02.998Z,10216
2017-09-06T07:00:04.998Z,11088
2017-09-06T07:02:06.793Z,11152
2017-09-06T07:03:08.469Z,10740
2017-09-06T07:04:11.557Z,9896
2017-09-06T07:05:13.557Z,9044
2017-09-06T07:06:15.820Z,10176
2017-09-06T07:07:17.834Z,10956
2017-09-06T07:08:19.793Z,10280
2017-09-06T07:09:21.848Z,9652
2017-09-06T07:10:23.892Z,9500
2017-09-06T07:11:26.051Z,10148
2017-09-06T07:12:28.111Z,10232
2017-09-06T07:13:30.160Z,10112
2017-09-06T07:14:32.239Z,9448
2017-09-06T07:15:34.205Z,8492
2017-09-06T07:16:36.230Z,8060
2017-09-06T07:17:38.256Z,6880
2017-09-06T07:18:40.267Z,6272
2017-09-06T07:19:42.124Z,6580
2017-09-06T07:20:44.064Z,6508
2017-09-06T07:21:46.086Z,5832
2017-09-06T07:22:48.080Z,5816
2017-09-06T07:23:50.142Z,5704
2017-09-06T07:24:52.237Z,5184
2017-09-06T07:25:54.166Z,4816
2017-09-06T07:26:56.176Z,5088
2017-09-06T07:27:58.130Z,5940
2017-09-06T07:29:00.194Z,6828
2017-09-06T07:30:02.014Z,5988
2017-09-06T07:31:03.969Z,5624
2017-09-06T07:32:05.970Z,5504
2017-09-06T07:33:07.902Z,5508
2017-09-06T07:34:09.852Z,6740
2017-09-06T07:35:11.914Z,8060
2017-09-06T07:36:13.856Z,8216
2017-09-06T07:37:15.803Z,7824
2017-09-06T07:38:17.811Z,7748
2017-09-06T07:39:20.036Z,8184
2017-09-06T07:40:22.053Z,7580
2017-09-06T07:41:24.025Z,6976
2017-09-06T07:42:26.071Z,6976
2017-09-06T07:43:28.043Z,7316
2017-09-06T07:44:30.379Z,8232
2017-09-06T07:45:32.252Z,10200
2017-09-06T07:46:34.282Z,10860
2017-09-06T07:47:36.333Z,11360
2017-09-06T07:48:38.320Z,9756
2017-09-06T07:49:40.310Z,8972
2017-09-06T07:50:42.221Z,8588
2017-09-06T07:51:44.244Z,7472
2017-09-06T07:52:46.258Z,6672
2017-09-06T07:53:48.239Z,6572
2017-09-06T07:54:50.255Z,6728
2017-09-06T07:55:52.272Z,6744
2017-09-06T07:56:54.290Z,6212
2017-09-06T07:57:56.419Z,5472
2017-09-06T07:58:58.464Z,5112
2017-09-06T08:00:00.480Z,5028
2017-09-06T08:02:06.835Z,5364
2017-09-06T08:03:08.491Z,6164
2017-09-06T08:04:10.273Z,7112
2017-09-06T08:05:12.273Z,8172
2017-09-06T08:06:14.246Z,8520
2017-09-06T08:07:16.211Z,8804
2017-09-06T08:08:19.246Z,10328
2017-09-06T08:09:21.239Z,10392
2017-09-06T08:10:23.184Z,9800
2017-09-06T08:11:25.178Z,10380
2017-09-06T08:12:27.243Z,13032
2017-09-06T08:13:29.215Z,13624
2017-09-06T08:14:31.256Z,13080
2017-09-06T08:15:33.271Z,11684
2017-09-06T08:16:35.258Z,10028
2017-09-06T08:17:37.330Z,8900
2017-09-06T08:18:39.271Z,8056
2017-09-06T08:19:41.390Z,8320
2017-09-06T08:20:43.317Z,9248
2017-09-06T08:21:45.264Z,10452
2017-09-06T08:22:47.203Z,9348
2017-09-06T08:23:49.301Z,8264
2017-09-06T08:24:51.207Z,7140
2017-09-06T08:25:53.183Z,5816
2017-09-06T08:26:56.190Z,4856
2017-09-06T08:27:58.327Z,4196
2017-09-06T08:29:00.285Z,4600
2017-09-06T08:30:02.322Z,5264
2017-09-06T08:31:04.334Z,6888
2017-09-06T08:32:06.355Z,10132
2017-09-06T08:33:08.386Z,13976
2017-09-06T08:34:10.413Z,18464
2017-09-06T08:35:12.374Z,25888
2017-09-06T08:36:14.741Z,29312
2017-09-06T08:37:16.814Z,30368
2017-09-06T08:38:18.811Z,25920
2017-09-06T08:39:20.783Z,20192
2017-09-06T08:40:22.769Z,17888
2017-09-06T08:41:24.728Z,15432
2017-09-06T08:42:26.793Z,13420
2017-09-06T08:43:28.825Z,11296
2017-09-06T08:44:30.846Z,10612
2017-09-06T08:45:32.891Z,13096
2017-09-06T08:46:35.306Z,16324
2017-09-06T08:47:37.182Z,18784
2017-09-06T08:48:39.209Z,18688
2017-09-06T08:49:41.205Z,18720
2017-09-06T08:50:43.174Z,21632
2017-09-06T08:51:45.144Z,23904
2017-09-06T08:52:47.142Z,23840
2017-09-06T08:53:49.053Z,25728
2017-09-06T08:54:50.912Z,27904
2017-09-06T08:55:52.933Z,28384
2017-09-06T08:56:54.895Z,29088
2017-09-06T08:57:56.960Z,29408
2017-09-06T08:58:58.993Z,29568
2017-09-06T09:00:00.981Z,30496
2017-09-06T09:02:06.950Z,35488
2017-09-06T09:03:08.571Z,35488
2017-09-06T09:04:10.221Z,34560
2017-09-06T09:05:12.080Z,35136
2017-09-06T09:06:14.645Z,31808
2017-09-06T09:07:16.598Z,27392
2017-09-06T09:08:18.479Z,25120
2017-09-06T09:09:20.363Z,22656
2017-09-06T09:10:22.343Z,19584
2017-09-06T09:11:24.333Z,18176
2017-09-06T09:12:26.430Z,20256
2017-09-06T09:13:28.361Z,21280
2017-09-06T09:14:30.304Z,22720
2017-09-06T09:15:32.311Z,23456
2017-09-06T09:16:34.339Z,24896
2017-09-06T09:17:36.400Z,25760
2017-09-06T09:18:38.374Z,22880
2017-09-06T09:19:40.388Z,22560
2017-09-06T09:20:42.300Z,24864
2017-09-06T09:21:44.399Z,26656
2017-09-06T09:22:46.336Z,30752
2017-09-06T09:23:48.268Z,29792
2017-09-06T09:24:50.313Z,24192
2017-09-06T09:25:52.305Z,18080
2017-09-06T09:26:54.182Z,14272
2017-09-06T09:27:56.236Z,18880
2017-09-06T09:28:58.236Z,32288
2017-09-06T09:30:00.237Z,33024
2017-09-06T09:31:02.252Z,34528
2017-09-06T09:32:04.631Z,78208
2017-09-06T09:33:06.551Z,49728
2017-09-06T09:34:08.501Z,48768
2017-09-06T09:35:10.657Z,52096
2017-09-06T09:36:12.829Z,95424
2017-09-06T09:37:14.713Z,39968
2017-09-06T09:38:16.504Z,43744
2017-09-06T09:39:18.500Z,25440
2017-09-06T09:40:20.628Z,31200
2017-09-06T09:41:22.654Z,41248
2017-09-06T09:42:24.603Z,37824
2017-09-06T09:43:26.571Z,27328
2017-09-06T09:44:28.636Z,32064
2017-09-06T09:45:30.404Z,32512
2017-09-06T09:46:32.212Z,32224
2017-09-06T09:47:34.245Z,39200
2017-09-06T09:48:35.968Z,82496
2017-09-06T09:49:37.892Z,47136
2017-09-06T09:50:39.815Z,36896
2017-09-06T09:51:41.824Z,29216
2017-09-06T09:52:43.734Z,25088
2017-09-06T09:53:45.645Z,28480
2017-09-06T09:54:47.374Z,31136
2017-09-06T09:55:49.367Z,38368
2017-09-06T09:56:51.272Z,83328
2017-09-06T09:57:55.234Z,115328
2017-09-06T09:58:56.960Z,113280
2017-09-06T10:00:00.280Z,114304
2017-09-06T10:02:07.044Z,110304
2017-09-06T10:03:08.486Z,27584
2017-09-06T10:04:09.960Z,73984
2017-09-06T10:05:11.603Z,103808
2017-09-06T10:06:13.374Z,96192
2017-09-06T10:07:15.170Z,97760
2017-09-06T10:08:17.130Z,96224
2017-09-06T10:09:18.937Z,95840
2017-09-06T10:10:20.646Z,95328
2017-09-06T10:11:22.429Z,90464
2017-09-06T10:12:24.197Z,91072
2017-09-06T10:13:25.936Z,94400
2017-09-06T10:14:27.599Z,96960
2017-09-06T10:15:29.395Z,99648
2017-09-06T10:16:31.312Z,103840
2017-09-06T10:17:33.161Z,108000
2017-09-06T10:18:35.088Z,36128
2017-09-06T10:19:36.841Z,110336
2017-09-06T10:20:38.718Z,107904
2017-09-06T10:21:40.664Z,116192
2017-09-06T10:22:42.652Z,52032
2017-09-06T10:23:44.436Z,98784
2017-09-06T10:24:46.258Z,96640
2017-09-06T10:25:48.058Z,95456
2017-09-06T10:26:49.998Z,91712
2017-09-06T10:27:51.916Z,87392
2017-09-06T10:28:53.852Z,42816
2017-09-06T10:29:55.852Z,31456
2017-09-06T10:30:57.975Z,94240
2017-09-06T10:32:00.005Z,96768
2017-09-06T10:33:01.986Z,94880
2017-09-06T10:34:04.033Z,97344
2017-09-06T10:35:05.729Z,95808
2017-09-06T10:36:07.559Z,96128
2017-09-06T10:37:09.619Z,94624
2017-09-06T10:38:11.470Z,95584
2017-09-06T10:39:13.384Z,95488
2017-09-06T10:40:15.453Z,93024
2017-09-06T10:41:17.491Z,69696
2017-09-06T10:42:19.456Z,95008
2017-09-06T10:43:21.493Z,95904
2017-09-06T10:44:23.381Z,95904
2017-09-06T10:45:25.493Z,96320
2017-09-06T10:46:27.496Z,96032
2017-09-06T10:47:29.589Z,95392
2017-09-06T10:48:31.493Z,98592
2017-09-06T10:49:34.464Z,99744
2017-09-06T10:50:36.442Z,102144
2017-09-06T10:51:38.436Z,60352
2017-09-06T10:52:40.421Z,29792
2017-09-06T10:53:42.370Z,101376
2017-09-06T10:54:44.318Z,99520
2017-09-06T10:55:46.309Z,97024
2017-09-06T10:56:48.323Z,97632
2017-09-06T10:57:50.338Z,103136
2017-09-06T10:58:52.273Z,104128
2017-09-06T10:59:54.457Z,108000
2017-09-06T11:00:56.563Z,113152
2017-09-06T11:01:58.613Z,108032
2017-09-06T11:03:00.655Z,107968
2017-09-06T11:04:02.739Z,107488
2017-09-06T11:05:04.253Z,108192
2017-09-06T11:06:05.940Z,110688
2017-09-06T11:07:07.572Z,112768
2017-09-06T11:08:10.323Z,110432
2017-09-06T11:09:12.078Z,81184
2017-09-06T11:10:15.682Z,116224
2017-09-06T11:11:17.841Z,113856
2017-09-06T11:12:19.832Z,114336
2017-09-06T11:13:21.789Z,117184
2017-09-06T11:14:23.701Z,116768
2017-09-06T11:15:25.895Z,117824
2017-09-06T11:16:29.031Z,113440
2017-09-06T11:17:30.999Z,111744
2017-09-06T11:18:33.043Z,74080
2017-09-06T11:19:35.375Z,107584
2017-09-06T11:20:38.468Z,107616
2017-09-06T11:21:40.568Z,110112
2017-09-06T11:22:42.643Z,111168
2017-09-06T11:23:44.836Z,113728
2017-09-06T11:24:46.863Z,105984
2017-09-06T11:25:48.997Z,27776
2017-09-06T11:26:50.954Z,25984
2017-09-06T11:27:52.950Z,24672
2017-09-06T11:28:56.150Z,22816
2017-09-06T11:29:58.144Z,20384
2017-09-06T11:31:00.169Z,19232
2017-09-06T11:32:02.054Z,18944
2017-09-06T11:33:04.300Z,18368
2017-09-06T11:34:06.589Z,18528
2017-09-06T11:35:08.640Z,17728
2017-09-06T11:36:10.750Z,15864
2017-09-06T11:37:12.752Z,16388
2017-09-06T11:38:14.874Z,19264
2017-09-06T11:39:16.940Z,19904
2017-09-06T11:40:19.029Z,20832
2017-09-06T11:41:21.046Z,22848
2017-09-06T11:42:23.236Z,23104
2017-09-06T11:43:26.449Z,23584
2017-09-06T11:44:28.631Z,24736
2017-09-06T11:45:30.600Z,52448
2017-09-06T11:46:32.563Z,89024
2017-09-06T11:47:34.490Z,31296
2017-09-06T11:48:36.407Z,29984
2017-09-06T11:49:38.401Z,22848
2017-09-06T11:50:40.620Z,19936
2017-09-06T11:51:42.607Z,20224
2017-09-06T11:52:44.555Z,24544
2017-09-06T11:53:46.736Z,113184
2017-09-06T11:54:48.630Z,113344
2017-09-06T11:55:50.646Z,48096
2017-09-06T11:56:52.624Z,32704
2017-09-06T11:57:54.533Z,28128
2017-09-06T11:58:56.603Z,24768
2017-09-06T11:59:58.727Z,24064
2017-09-06T12:01:00.597Z,23264
2017-09-06T12:02:02.559Z,24576
2017-09-06T12:03:04.453Z,24896
2017-09-06T12:04:06.461Z,28192
2017-09-06T12:05:08.316Z,27392
2017-09-06T12:06:10.802Z,29760
2017-09-06T12:07:12.885Z,29312
2017-09-06T12:08:14.990Z,27872
2017-09-06T12:09:17.373Z,25632
2017-09-06T12:10:21.398Z,24640
2017-09-06T12:11:23.623Z,23936
2017-09-06T12:12:26.120Z,25984
2017-09-06T12:13:28.282Z,35168
2017-09-06T12:14:30.567Z,29152
2017-09-06T12:15:33.861Z,57920
2017-09-06T12:16:36.150Z,27936
2017-09-06T12:17:38.191Z,28640
2017-09-06T12:18:40.469Z,54240
2017-09-06T12:19:42.609Z,109376
2017-09-06T12:20:44.834Z,104448
2017-09-06T12:21:48.324Z,101120
2017-09-06T12:22:50.938Z,101344
2017-09-06T12:23:53.280Z,104352
2017-09-06T12:24:55.473Z,102912
2017-09-06T12:25:57.596Z,41632
2017-09-06T12:27:00.139Z,103808
2017-09-06T12:28:02.275Z,107392
2017-09-06T12:29:04.468Z,85984
2017-09-06T12:30:06.514Z,112608
2017-09-06T12:31:08.493Z,111712
2017-09-06T12:32:10.700Z,108800
2017-09-06T12:33:12.716Z,114144
2017-09-06T12:34:18.549Z,111616
2017-09-06T12:35:20.810Z,109696
2017-09-06T12:36:22.877Z,40352
2017-09-06T12:37:24.925Z,65792
2017-09-06T12:38:26.982Z,64992
2017-09-06T12:39:30.042Z,81184
2017-09-06T12:40:32.110Z,102144
2017-09-06T12:41:34.147Z,97920
2017-09-06T12:42:36.196Z,74368
2017-09-06T12:43:38.271Z,94048
2017-09-06T12:44:40.363Z,57952
2017-09-06T12:45:42.435Z,92864
2017-09-06T12:46:44.656Z,91328
2017-09-06T12:47:46.808Z,90720
2017-09-06T12:48:49.137Z,91968
2017-09-06T12:49:51.254Z,93216
2017-09-06T12:50:53.394Z,93984
2017-09-06T12:51:55.606Z,94976
2017-09-06T12:52:57.909Z,59968
2017-09-06T12:53:59.934Z,35328
2017-09-06T12:55:02.087Z,35328
2017-09-06T12:56:04.046Z,37056
2017-09-06T12:57:05.957Z,51840
2017-09-06T12:58:07.971Z,100224
2017-09-06T12:59:10.011Z,37760
2017-09-06T13:00:11.915Z,32864
2017-09-06T13:01:13.964Z,31200
2017-09-06T13:02:15.952Z,74208
2017-09-06T13:03:18.790Z,96832
2017-09-06T13:04:20.712Z,31584
2017-09-06T13:05:22.638Z,31136
2017-09-06T13:06:24.542Z,34944
2017-09-06T13:07:26.552Z,63552
2017-09-06T13:08:28.553Z,93344
2017-09-06T13:09:30.466Z,36960
2017-09-06T13:10:32.578Z,42240
2017-09-06T13:11:34.417Z,94944
2017-09-06T13:12:36.290Z,56128
2017-09-06T13:13:39.238Z,37472
2017-09-06T13:14:41.182Z,36096
2017-09-06T13:15:43.201Z,30112
2017-09-06T13:16:45.156Z,86464
2017-09-06T13:17:46.923Z,30816
2017-09-06T13:18:48.805Z,81088
2017-09-06T13:19:50.823Z,96192
2017-09-06T13:20:52.691Z,96896
2017-09-06T13:21:54.582Z,95552
2017-09-06T13:22:56.570Z,92288
2017-09-06T13:23:58.682Z,88704
2017-09-06T13:25:00.679Z,86656
2017-09-06T13:26:02.520Z,86464
2017-09-06T13:27:04.484Z,87968
2017-09-06T13:28:06.440Z,88352
2017-09-06T13:29:08.527Z,85344
2017-09-06T13:30:10.745Z,44032
2017-09-06T13:31:12.770Z,94752
2017-09-06T13:32:14.743Z,98144
2017-09-06T13:33:16.686Z,46880
2017-09-06T13:34:18.742Z,94144
2017-09-06T13:35:20.919Z,95648
2017-09-06T13:36:23.004Z,96192
2017-09-06T13:37:24.928Z,95872
2017-09-06T13:38:26.841Z,92064
2017-09-06T13:39:28.764Z,62944
2017-09-06T13:40:31.106Z,38208
2017-09-06T13:41:33.254Z,37312
2017-09-06T13:42:35.405Z,91904
2017-09-06T13:43:42.768Z,92992
2017-09-06T13:44:44.666Z,41024
2017-09-06T13:45:46.742Z,35680
2017-09-06T13:46:48.728Z,30112
2017-09-06T13:47:50.653Z,33408
2017-09-06T13:48:52.588Z,29568
2017-09-06T13:49:54.606Z,77984
2017-09-06T13:50:56.657Z,22624
2017-09-06T13:51:58.695Z,19776
2017-09-06T13:53:00.723Z,18240
2017-09-06T13:54:03.127Z,18016
2017-09-06T13:55:05.341Z,19648
2017-09-06T13:56:07.477Z,22912
2017-09-06T13:57:19.689Z,24864
2017-09-06T13:58:21.563Z,26976
2017-09-06T13:59:23.736Z,29408
2017-09-06T14:00:26.832Z,30208
2017-09-06T18:33:24.305Z,0
2017-09-06T18:34:25.768Z,0
2017-09-06T18:35:27.336Z,0